Dutton, Alabama
Current Conditions -  °F | °C
As of 3:35 PM on Thursday 23 Oct 2014 (Local Time) from K4A6 Reporting Station
Clear Clear  
Wind Chill: 68°   Ceiling: Unl
Heat Index: 68°   Visibility: 10mi
Dew Point: 41°   Wind: 5mph
Humidity: 37%   Direction: 50°NE
Pressure: 30.08"   Gusts: NA
Location:  34.61°N, 85.92°W
Report Text: K4A6 232035Z AUTO 05004KT 10SM CLR 20/05 A3008 RMK AO2
Loading
Personal Weather Stations






























Interactive Weather Map
Tropical Storm Tracking
New forecast layout! Learn more

10-Day Weather Forecast

Advertisements
Track Severe Weather on mobile